createdAt,value
2022-09-21T00:01:40.963Z,100.00
2022-09-21T00:04:09.580Z,100.00
2022-09-21T00:06:39.368Z,100.00
2022-09-21T00:09:09.590Z,100.00
2022-09-21T00:11:39.489Z,100.00
2022-09-21T00:14:10.920Z,100.00
2022-09-21T00:16:40.089Z,100.00
2022-09-21T00:19:08.886Z,100.00
2022-09-21T00:21:39.366Z,100.00
2022-09-21T00:24:09.028Z,100.00
2022-09-21T00:26:39.044Z,100.00
2022-09-21T00:29:08.227Z,100.00
2022-09-21T00:31:36.722Z,100.00
2022-09-21T00:34:08.065Z,100.00
2022-09-21T00:36:36.713Z,100.00
2022-09-21T00:39:05.852Z,100.00
2022-09-21T00:41:36.096Z,100.00
2022-09-21T00:44:30.938Z,100.00
2022-09-21T00:47:04.352Z,100.00
2022-09-21T00:49:35.249Z,100.00
2022-09-21T00:52:06.850Z,100.00
2022-09-21T00:54:43.748Z,100.00
2022-09-21T00:57:12.836Z,100.00
2022-09-21T00:59:46.430Z,100.00
2022-09-21T01:02:16.092Z,100.00
2022-09-21T01:04:45.216Z,100.00
2022-09-21T01:07:18.437Z,100.00
2022-09-21T01:09:50.453Z,100.00
2022-09-21T01:12:32.208Z,100.00
2022-09-21T01:15:18.397Z,100.00
2022-09-21T01:17:52.725Z,100.00
2022-09-21T01:20:48.274Z,100.00
2022-09-21T01:23:43.030Z,100.00
2022-09-21T01:26:23.387Z,100.00
2022-09-21T01:29:15.323Z,100.00
2022-09-21T01:31:49.582Z,100.00
2022-09-21T01:34:27.111Z,100.00
2022-09-21T01:36:59.125Z,100.00
2022-09-21T01:39:29.378Z,100.00
2022-09-21T01:41:59.059Z,100.00
2022-09-21T01:44:33.720Z,100.00
2022-09-21T01:47:04.113Z,100.00
2022-09-21T01:49:37.850Z,100.00
2022-09-21T01:52:13.409Z,100.00
2022-09-21T01:54:46.528Z,100.00
2022-09-21T01:57:22.444Z,100.00
2022-09-21T01:59:55.771Z,100.00
2022-09-21T02:02:31.390Z,100.00
2022-09-21T02:05:01.843Z,100.00
2022-09-21T02:07:30.751Z,100.00
2022-09-21T02:10:00.190Z,100.00
2022-09-21T02:12:28.673Z,100.00
2022-09-21T02:14:59.061Z,100.00
2022-09-21T02:17:38.988Z,100.00
2022-09-21T02:20:20.271Z,100.00
2022-09-21T02:23:04.206Z,100.00
2022-09-21T02:25:43.206Z,100.00
2022-09-21T02:28:19.310Z,100.00
2022-09-21T02:30:57.673Z,100.00
2022-09-21T02:33:32.582Z,100.00
2022-09-21T02:36:09.037Z,100.00
2022-09-21T02:38:41.402Z,100.00
2022-09-21T02:41:17.259Z,100.00
2022-09-21T02:43:52.067Z,100.00
2022-09-21T02:46:28.981Z,100.00
2022-09-21T02:49:02.665Z,100.00
2022-09-21T02:51:33.822Z,100.00
2022-09-21T02:54:06.332Z,100.00
2022-09-21T02:56:35.889Z,100.00
2022-09-21T02:59:07.090Z,100.00
2022-09-21T03:01:38.047Z,100.00
2022-09-21T03:04:06.671Z,100.00
2022-09-21T03:08:06.970Z,100.00
2022-09-21T03:10:40.184Z,100.00
2022-09-21T03:13:09.817Z,100.00
2022-09-21T03:15:38.535Z,100.00
2022-09-21T03:18:09.777Z,100.00
2022-09-21T03:20:38.810Z,100.00
2022-09-21T03:23:09.581Z,100.00
2022-09-21T03:25:38.323Z,100.00
2022-09-21T03:28:07.126Z,100.00
2022-09-21T03:30:35.732Z,100.00
2022-09-21T03:33:05.319Z,100.00
2022-09-21T03:35:34.723Z,100.00
2022-09-21T03:38:03.436Z,100.00
2022-09-21T03:40:34.087Z,100.00
2022-09-21T03:43:02.586Z,100.00
2022-09-21T03:45:31.074Z,100.00
2022-09-21T03:48:00.594Z,100.00
2022-09-21T03:50:30.549Z,100.00
2022-09-21T03:52:59.399Z,100.00
2022-09-21T03:55:28.132Z,100.00
2022-09-21T03:57:58.643Z,100.00
2022-09-21T04:00:27.150Z,100.00
2022-09-21T04:02:55.873Z,100.00
2022-09-21T04:05:24.787Z,100.00
2022-09-21T04:07:53.291Z,100.00
2022-09-21T04:10:27.250Z,100.00
2022-09-21T04:13:03.290Z,100.00
2022-09-21T04:15:32.425Z,100.00
2022-09-21T04:18:01.153Z,100.00
2022-09-21T04:20:29.525Z,100.00
2022-09-21T04:22:58.189Z,100.00
2022-09-21T04:25:27.069Z,100.00
2022-09-21T04:27:55.554Z,100.00
2022-09-21T04:30:25.363Z,100.00
2022-09-21T04:32:53.763Z,100.00
2022-09-21T04:35:22.395Z,100.00
2022-09-21T04:37:50.751Z,100.00
2022-09-21T04:40:19.257Z,100.00
2022-09-21T04:42:52.758Z,100.00
2022-09-21T04:45:21.346Z,100.00
2022-09-21T04:47:51.271Z,100.00
2022-09-21T04:50:20.166Z,100.00
2022-09-21T04:52:49.416Z,100.00
2022-09-21T04:55:18.339Z,100.00
2022-09-21T04:57:46.689Z,100.00
2022-09-21T05:00:15.692Z,100.00
2022-09-21T05:02:44.163Z,100.00
2022-09-21T05:05:14.758Z,100.00
2022-09-21T05:07:43.210Z,100.00
2022-09-21T05:10:11.885Z,100.00
2022-09-21T05:12:42.332Z,100.00
2022-09-21T05:15:11.771Z,100.00
2022-09-21T05:17:40.278Z,100.00
2022-09-21T05:20:09.157Z,100.00
2022-09-21T05:22:38.973Z,100.00
2022-09-21T05:25:08.942Z,100.00
2022-09-21T05:27:37.329Z,100.00
2022-09-21T05:30:07.016Z,100.00
2022-09-21T05:32:46.447Z,100.00
2022-09-21T05:35:26.219Z,100.00
2022-09-21T05:38:01.320Z,100.00
2022-09-21T05:40:30.319Z,100.00
2022-09-21T05:42:59.897Z,100.00
2022-09-21T05:45:30.208Z,100.00
2022-09-21T05:48:08.799Z,100.00
2022-09-21T05:50:50.346Z,100.00
2022-09-21T05:53:51.771Z,100.00
2022-09-21T05:56:33.609Z,100.00
2022-09-21T05:59:13.786Z,100.00
2022-09-21T06:01:59.249Z,100.00
2022-09-21T06:04:28.626Z,100.00
2022-09-21T06:06:57.052Z,100.00
2022-09-21T06:09:28.298Z,100.00
2022-09-21T06:11:56.710Z,100.00
2022-09-21T06:14:26.910Z,100.00
2022-09-21T06:16:55.408Z,100.00
2022-09-21T06:19:23.846Z,100.00
2022-09-21T06:21:52.197Z,100.00
2022-09-21T06:24:22.362Z,100.00
2022-09-21T06:26:53.860Z,100.00
2022-09-21T06:29:23.838Z,100.00
2022-09-21T06:31:52.976Z,100.00
2022-09-21T06:34:21.478Z,100.00
2022-09-21T06:36:49.813Z,100.00
2022-09-21T06:39:19.195Z,100.00
2022-09-21T06:41:47.959Z,100.00
2022-09-21T06:44:18.057Z,100.00
2022-09-21T06:46:46.771Z,100.00
2022-09-21T06:49:15.285Z,100.00
2022-09-21T06:51:44.127Z,100.00
2022-09-21T06:54:12.875Z,100.00
2022-09-21T06:56:43.410Z,100.00
2022-09-21T06:59:12.465Z,100.00
2022-09-21T07:01:42.608Z,100.00
2022-09-21T07:04:11.669Z,100.00
2022-09-21T07:06:40.565Z,100.00
2022-09-21T07:12:00.438Z,100.00
2022-09-21T07:14:29.333Z,100.00
2022-09-21T07:16:59.908Z,100.00
2022-09-21T07:19:28.964Z,100.00
2022-09-21T07:21:57.375Z,100.00
2022-09-21T07:24:25.901Z,100.00
2022-09-21T07:26:54.301Z,100.00
2022-09-21T07:29:23.435Z,100.00
2022-09-21T07:31:52.087Z,100.00
2022-09-21T07:34:22.243Z,100.00
2022-09-21T07:36:51.305Z,100.00
2022-09-21T07:39:20.008Z,100.00
2022-09-21T07:41:48.391Z,100.00
2022-09-21T07:44:17.217Z,100.00
2022-09-21T07:46:48.245Z,100.00
2022-09-21T07:49:16.973Z,100.00
2022-09-21T07:51:46.754Z,100.00
2022-09-21T07:54:16.056Z,100.00
2022-09-21T07:57:04.876Z,100.00
2022-09-21T07:59:33.180Z,100.00
2022-09-21T08:02:02.669Z,100.00
2022-09-21T08:04:31.135Z,100.00
2022-09-21T08:07:01.161Z,100.00
2022-09-21T08:09:29.532Z,100.00
2022-09-21T08:11:59.525Z,100.00
2022-09-21T08:14:28.038Z,100.00
2022-09-21T08:16:56.434Z,100.00
2022-09-21T08:19:26.913Z,100.00
2022-09-21T08:21:57.847Z,100.00
2022-09-21T08:24:28.140Z,100.00
2022-09-21T08:26:57.179Z,100.00
2022-09-21T08:29:26.483Z,100.00
2022-09-21T08:31:55.759Z,100.00
2022-09-21T08:34:24.775Z,100.00
2022-09-21T08:36:55.635Z,100.00
2022-09-21T08:39:24.718Z,100.00
2022-09-21T08:42:27.367Z,100.00
2022-09-21T08:45:01.189Z,100.00
2022-09-21T08:47:40.173Z,100.00
2022-09-21T08:50:30.914Z,100.00
2022-09-21T08:53:13.972Z,100.00
2022-09-21T08:55:42.883Z,100.00
2022-09-21T08:58:24.712Z,100.00
2022-09-21T09:01:08.370Z,100.00
2022-09-21T09:04:06.308Z,100.00
2022-09-21T09:06:43.521Z,100.00
2022-09-21T09:09:26.919Z,100.00
2022-09-21T09:12:11.598Z,100.00
2022-09-21T09:14:57.879Z,100.00
2022-09-21T09:17:39.661Z,100.00
2022-09-21T09:20:15.504Z,100.00
2022-09-21T09:22:49.160Z,100.00
2022-09-21T09:25:22.357Z,100.00
2022-09-21T09:27:55.473Z,100.00
2022-09-21T09:30:27.357Z,100.00
2022-09-21T09:33:01.629Z,100.00
2022-09-21T09:35:33.658Z,100.00
2022-09-21T09:38:11.571Z,100.00
2022-09-21T09:40:58.143Z,100.00
2022-09-21T09:43:43.630Z,100.00
2022-09-21T09:46:23.163Z,100.00
2022-09-21T09:49:08.097Z,100.00
2022-09-21T09:51:38.703Z,100.00
2022-09-21T09:54:10.272Z,100.00
2022-09-21T09:56:38.859Z,100.00
2022-09-21T09:59:14.514Z,100.00
2022-09-21T10:01:47.550Z,100.00
2022-09-21T10:04:18.539Z,100.00
2022-09-21T10:06:47.454Z,100.00
2022-09-21T10:09:27.024Z,100.00
2022-09-21T10:11:58.150Z,100.00
2022-09-21T10:14:29.796Z,100.00
2022-09-21T10:17:05.548Z,100.00
2022-09-21T10:19:34.474Z,100.00
2022-09-21T10:22:05.746Z,100.00
2022-09-21T10:24:37.883Z,100.00
2022-09-21T10:27:10.627Z,100.00
2022-09-21T10:29:44.740Z,100.00
2022-09-21T10:32:26.733Z,100.00
2022-09-21T10:35:18.329Z,100.00
2022-09-21T10:37:48.674Z,100.00
2022-09-21T10:40:31.050Z,100.00
2022-09-21T10:43:01.773Z,100.00
2022-09-21T10:45:31.674Z,100.00
2022-09-21T10:48:10.280Z,100.00
2022-09-21T10:50:41.172Z,100.00
2022-09-21T10:53:19.380Z,100.00
2022-09-21T10:56:11.857Z,100.00
2022-09-21T10:59:13.946Z,100.00
2022-09-21T11:01:47.499Z,100.00
2022-09-21T11:04:25.305Z,100.00
2022-09-21T11:06:58.844Z,100.00
2022-09-21T11:09:34.296Z,100.00
2022-09-21T11:12:10.634Z,100.00
2022-09-21T11:14:50.265Z,100.00
2022-09-21T11:17:30.903Z,100.00
2022-09-21T11:20:11.501Z,100.00
2022-09-21T11:22:47.104Z,100.00
2022-09-21T11:25:32.106Z,100.00
2022-09-21T11:28:07.872Z,100.00
2022-09-21T11:30:56.036Z,100.00
2022-09-21T11:33:46.138Z,100.00
2022-09-21T11:36:27.407Z,100.00
2022-09-21T11:39:04.894Z,100.00
2022-09-21T11:42:05.123Z,100.00
2022-09-21T11:44:56.151Z,97.36
2022-09-21T11:47:44.355Z,98.54
2022-09-21T11:50:32.366Z,100.00
2022-09-21T11:53:18.097Z,96.28
2022-09-21T11:56:15.818Z,97.77
2022-09-21T11:58:53.143Z,96.28
2022-09-21T12:01:46.683Z,94.07
2022-09-21T12:04:29.732Z,95.44
2022-09-21T12:07:12.040Z,95.47
2022-09-21T12:10:15.585Z,97.11
2022-09-21T12:12:51.901Z,97.71
2022-09-21T12:15:27.554Z,97.36
2022-09-21T12:18:02.962Z,98.14
2022-09-21T12:20:42.115Z,98.88
2022-09-21T12:23:17.487Z,100.00
2022-09-21T12:25:53.834Z,99.20
2022-09-21T12:28:26.201Z,93.31
2022-09-21T12:31:00.794Z,93.76
2022-09-21T12:33:37.481Z,90.98
2022-09-21T12:36:15.296Z,92.98
2022-09-21T12:38:50.519Z,89.83
2022-09-21T12:41:28.941Z,88.98
2022-09-21T12:44:04.147Z,90.50
2022-09-21T12:46:36.329Z,90.10
2022-09-21T12:49:26.166Z,88.32
2022-09-21T12:51:58.976Z,89.07
2022-09-21T12:54:38.376Z,90.19
2022-09-21T12:57:42.485Z,90.14
2022-09-21T13:00:11.105Z,88.51
2022-09-21T13:02:47.060Z,87.28
2022-09-21T13:05:22.624Z,87.58
2022-09-21T13:08:12.533Z,88.62
2022-09-21T13:10:54.708Z,89.52
2022-09-21T13:13:33.738Z,89.31
2022-09-21T13:16:05.083Z,89.23
2022-09-21T13:18:36.652Z,88.97
2022-09-21T13:21:17.991Z,89.51
2022-09-21T13:23:54.228Z,91.33
2022-09-21T13:26:37.195Z,92.07
2022-09-21T13:29:29.911Z,92.61
2022-09-21T13:32:01.002Z,92.23
2022-09-21T13:34:36.170Z,94.19
2022-09-21T13:37:28.744Z,94.06
2022-09-21T13:40:42.856Z,94.46
2022-09-21T13:43:24.371Z,94.91
2022-09-21T13:46:00.298Z,96.00
2022-09-21T13:48:30.945Z,94.77
2022-09-21T13:51:02.081Z,95.59
2022-09-21T13:53:40.228Z,96.50
2022-09-21T13:56:17.007Z,96.45
2022-09-21T13:58:50.817Z,96.47
2022-09-21T14:01:46.299Z,94.88
2022-09-21T14:04:21.826Z,96.04
2022-09-21T14:06:52.802Z,96.62
2022-09-21T14:09:25.971Z,97.85
2022-09-21T14:11:58.840Z,96.81
2022-09-21T14:14:31.466Z,96.24
2022-09-21T14:17:04.226Z,97.05
2022-09-21T14:20:01.440Z,98.21
2022-09-21T14:22:45.188Z,98.62
2022-09-21T14:25:51.264Z,99.73
2022-09-21T14:28:25.309Z,100.00
2022-09-21T14:30:58.380Z,98.94
2022-09-21T14:33:51.671Z,97.75
2022-09-21T14:36:23.924Z,97.77
2022-09-21T14:38:55.926Z,98.59
2022-09-21T14:41:27.608Z,98.67
2022-09-21T14:43:57.035Z,98.86
2022-09-21T14:46:38.449Z,97.33
2022-09-21T14:49:26.723Z,99.08
2022-09-21T14:52:12.349Z,98.49
2022-09-21T14:54:51.940Z,98.57
2022-09-21T14:57:37.592Z,98.77
2022-09-21T15:00:21.593Z,99.34
2022-09-21T15:02:59.911Z,100.00
2022-09-21T15:05:35.757Z,100.00
2022-09-21T15:08:44.111Z,100.00
2022-09-21T15:11:26.084Z,100.00
2022-09-21T15:14:13.604Z,98.89
2022-09-21T15:16:47.579Z,99.29
2022-09-21T15:19:22.962Z,96.84
2022-09-21T15:21:57.518Z,97.73
2022-09-21T15:24:29.893Z,97.89
2022-09-21T15:27:07.293Z,98.69
2022-09-21T15:29:36.003Z,97.84
2022-09-21T15:32:06.679Z,97.74
2022-09-21T15:34:35.235Z,97.62
2022-09-21T15:37:17.891Z,96.19
2022-09-21T15:39:47.072Z,96.18
2022-09-21T15:42:24.402Z,96.73
2022-09-21T15:45:11.630Z,97.51
2022-09-21T15:47:45.144Z,96.71
2022-09-21T15:50:15.318Z,96.53
2022-09-21T15:52:50.044Z,97.72
2022-09-21T15:55:22.299Z,97.92
2022-09-21T15:57:53.606Z,97.62
2022-09-21T16:00:25.924Z,98.01
2022-09-21T16:03:07.067Z,97.00
2022-09-21T16:05:46.001Z,97.91
2022-09-21T16:08:33.724Z,97.70
2022-09-21T16:11:17.607Z,97.63
2022-09-21T16:14:04.558Z,97.88
2022-09-21T16:16:34.274Z,98.00
2022-09-21T16:19:02.859Z,97.85
2022-09-21T16:21:34.491Z,97.92
2022-09-21T16:24:17.029Z,98.62
2022-09-21T16:26:57.967Z,98.61
2022-09-21T16:29:27.758Z,98.86
2022-09-21T16:32:26.857Z,99.27
2022-09-21T16:35:15.749Z,100.00
2022-09-21T16:37:44.787Z,100.00
2022-09-21T16:40:15.470Z,100.00
2022-09-21T16:42:46.624Z,100.00
2022-09-21T16:45:24.613Z,100.00
2022-09-21T16:47:54.287Z,100.00
2022-09-21T16:50:24.329Z,100.00
2022-09-21T16:52:52.949Z,100.00
2022-09-21T16:55:28.248Z,100.00
2022-09-21T16:57:57.877Z,100.00
2022-09-21T17:00:26.304Z,100.00
2022-09-21T17:02:54.675Z,100.00
2022-09-21T17:05:23.106Z,100.00
2022-09-21T17:07:55.251Z,100.00
2022-09-21T17:10:29.388Z,100.00
2022-09-21T17:12:58.396Z,100.00
2022-09-21T17:15:28.591Z,100.00
2022-09-21T17:17:58.439Z,100.00
2022-09-21T17:20:34.353Z,100.00
2022-09-21T17:23:03.605Z,100.00
2022-09-21T17:25:34.529Z,100.00
2022-09-21T17:28:04.247Z,100.00
2022-09-21T17:30:32.778Z,100.00
2022-09-21T17:33:01.410Z,100.00
2022-09-21T17:35:33.341Z,100.00
2022-09-21T17:38:02.588Z,100.00
2022-09-21T17:40:33.280Z,100.00
2022-09-21T17:43:12.138Z,100.00
2022-09-21T17:45:45.248Z,100.00
2022-09-21T17:48:21.439Z,100.00
2022-09-21T17:50:51.453Z,100.00
2022-09-21T17:53:34.800Z,100.00
2022-09-21T17:56:21.728Z,100.00
2022-09-21T17:58:58.289Z,100.00
2022-09-21T18:01:34.210Z,100.00
2022-09-21T18:04:06.159Z,100.00
2022-09-21T18:06:35.726Z,100.00
2022-09-21T18:09:05.493Z,100.00
2022-09-21T18:11:55.946Z,100.00
2022-09-21T18:14:36.356Z,100.00
2022-09-21T18:17:20.256Z,100.00
2022-09-21T18:20:04.080Z,100.00
2022-09-21T18:22:41.188Z,100.00
2022-09-21T18:25:16.710Z,100.00
2022-09-21T18:27:49.056Z,100.00
2022-09-21T18:30:18.967Z,100.00
2022-09-21T18:32:59.604Z,100.00
2022-09-21T18:35:42.523Z,100.00
2022-09-21T18:38:22.501Z,100.00
2022-09-21T18:41:13.125Z,100.00
2022-09-21T18:43:58.014Z,100.00
2022-09-21T18:46:34.001Z,100.00
2022-09-21T18:49:07.271Z,100.00
2022-09-21T18:51:44.640Z,100.00
2022-09-21T18:54:20.240Z,100.00
2022-09-21T18:56:49.678Z,100.00
2022-09-21T18:59:20.372Z,100.00
2022-09-21T19:01:50.867Z,100.00
2022-09-21T19:04:20.664Z,100.00
2022-09-21T19:06:54.899Z,100.00
2022-09-21T19:09:38.813Z,100.00
2022-09-21T19:12:16.586Z,100.00
2022-09-21T19:14:59.270Z,100.00
2022-09-21T19:17:42.477Z,100.00
2022-09-21T19:20:27.947Z,100.00
2022-09-21T19:23:06.861Z,100.00
2022-09-21T19:25:47.283Z,100.00
2022-09-21T19:28:36.784Z,100.00
2022-09-21T19:31:12.477Z,100.00
2022-09-21T19:33:56.697Z,100.00
2022-09-21T19:36:25.724Z,100.00
2022-09-21T19:38:54.687Z,100.00
2022-09-21T19:41:39.546Z,100.00
2022-09-21T19:44:22.029Z,100.00
2022-09-21T19:47:01.563Z,100.00
2022-09-21T19:49:48.646Z,100.00
2022-09-21T19:52:19.236Z,100.00
2022-09-21T19:55:05.806Z,100.00
2022-09-21T19:57:58.876Z,100.00
2022-09-21T20:00:27.897Z,100.00
2022-09-21T20:03:05.420Z,100.00
2022-09-21T20:05:41.738Z,100.00
2022-09-21T20:08:18.504Z,100.00
2022-09-21T20:11:01.006Z,100.00
2022-09-21T20:13:43.214Z,100.00
2022-09-21T20:16:30.126Z,100.00
2022-09-21T20:19:07.431Z,100.00
2022-09-21T20:21:40.492Z,100.00
2022-09-21T20:24:20.999Z,100.00
2022-09-21T20:26:52.155Z,100.00
2022-09-21T20:29:22.059Z,100.00
2022-09-21T20:31:54.212Z,100.00
2022-09-21T20:34:24.067Z,100.00
2022-09-21T20:36:52.479Z,100.00
2022-09-21T20:39:20.835Z,100.00
2022-09-21T20:41:49.856Z,100.00
2022-09-21T20:44:18.401Z,100.00
2022-09-21T20:46:46.971Z,100.00
2022-09-21T20:49:16.274Z,100.00
2022-09-21T20:51:46.435Z,100.00
2022-09-21T20:54:14.963Z,100.00
2022-09-21T20:56:43.865Z,100.00
2022-09-21T20:59:12.364Z,100.00
2022-09-21T21:01:41.318Z,100.00
2022-09-21T21:04:09.900Z,100.00
2022-09-21T21:06:38.530Z,100.00
2022-09-21T21:09:08.449Z,100.00
2022-09-21T21:11:36.908Z,100.00
2022-09-21T21:14:06.128Z,100.00
2022-09-21T21:16:34.627Z,100.00
2022-09-21T21:19:03.206Z,100.00
2022-09-21T21:21:32.038Z,100.00
2022-09-21T21:24:17.939Z,100.00
2022-09-21T21:27:01.853Z,100.00
2022-09-21T21:29:31.419Z,100.00
2022-09-21T21:32:01.230Z,100.00
2022-09-21T21:34:29.736Z,100.00
2022-09-21T21:36:58.323Z,100.00
2022-09-21T21:39:26.742Z,100.00
2022-09-21T21:41:56.760Z,100.00
2022-09-21T21:44:25.224Z,100.00
2022-09-21T21:46:54.990Z,100.00
2022-09-21T21:49:23.626Z,100.00
2022-09-21T21:51:52.471Z,100.00
2022-09-21T21:54:23.663Z,100.00
2022-09-21T21:56:52.850Z,100.00
2022-09-21T21:59:23.131Z,100.00
2022-09-21T22:01:51.886Z,100.00
2022-09-21T22:04:22.452Z,100.00
2022-09-21T22:06:54.418Z,100.00
2022-09-21T22:09:22.817Z,100.00
2022-09-21T22:11:51.240Z,100.00
2022-09-21T22:14:19.727Z,100.00
2022-09-21T22:16:50.212Z,100.00
2022-09-21T22:19:18.709Z,100.00
2022-09-21T22:21:53.162Z,100.00
2022-09-21T22:24:22.719Z,100.00
2022-09-21T22:26:51.877Z,100.00
2022-09-21T22:29:20.586Z,100.00
2022-09-21T22:31:51.811Z,100.00
2022-09-21T22:34:20.842Z,100.00
2022-09-21T22:36:50.532Z,100.00
2022-09-21T22:39:19.429Z,100.00
2022-09-21T22:41:47.753Z,100.00
2022-09-21T22:44:16.152Z,100.00
2022-09-21T22:46:44.520Z,100.00
2022-09-21T22:49:14.283Z,100.00
2022-09-21T22:51:43.340Z,100.00
2022-09-21T22:54:11.756Z,100.00
2022-09-21T22:56:40.091Z,100.00
2022-09-21T22:59:08.711Z,100.00
2022-09-21T23:01:39.433Z,100.00
2022-09-21T23:04:10.109Z,100.00
2022-09-21T23:06:42.228Z,100.00
2022-09-21T23:09:16.124Z,100.00
2022-09-21T23:11:48.508Z,100.00
2022-09-21T23:14:18.069Z,100.00
2022-09-21T23:16:46.799Z,100.00
2022-09-21T23:19:16.741Z,100.00
2022-09-21T23:21:49.722Z,100.00
2022-09-21T23:24:19.249Z,100.00
2022-09-21T23:26:48.633Z,100.00
2022-09-21T23:29:17.632Z,100.00
2022-09-21T23:31:46.622Z,100.00
2022-09-21T23:34:16.787Z,100.00
2022-09-21T23:36:47.022Z,100.00
2022-09-21T23:39:17.208Z,100.00
2022-09-21T23:41:46.248Z,100.00
2022-09-21T23:44:15.094Z,100.00
2022-09-21T23:46:44.479Z,100.00
2022-09-21T23:49:13.067Z,100.00
2022-09-21T23:51:41.893Z,100.00
2022-09-21T23:54:11.757Z,100.00
2022-09-21T23:56:40.205Z,100.00
2022-09-21T23:59:09.700Z,100.00
